Weather Melbourne :: Current Conditions and Historical Data

 
Daily Summary for May 05, 2015 Units:  Both    English   Metric
« Previous Day
Next Day »
Daily Weekly Monthly Yearly Custom
  Current: High: Low: Average:
Temperature: 64.2 °F /  17.9 °C 64.9 °F /  18.3 °C 64.2 °F /  17.9 °C 64.6 °F /  18.1 °C
Dew Point: 45.7 °F /  7.6 °C 46.7 °F /  8.2 °C 45.2 °F /  7.3 °C 46 °F /  7.8 °C
Humidity: 51 % 52 % 50 % 51 %
Wind Speed: 2.0 mph /  3.2 km/h 25.3 mph /  40.7 km/h - 8.5 mph /  13.7 km/h
Wind Gust: 15.0 mph /  24.1 km/h 25.3 mph /  40.7 km/h - -
Wind:NNE - - East
Pressure: 29.57 in /  1001.2 hPa 29.69 in /  1005.3 hPa 29.56 in /  1000.9 hPa -
Precipitation: 0.00 in /  0 mm      
Melbourne, Australia Weather Graphs
 
 
Melbourne, current snapshot. Courtesy of citylink.com.au
Weather Melbourne

Melbourne Weather Radar




Weather in Melbourne, AU
Hourly Data for May 05, 2015
Time Temperature Dew Point Pressure Wind Wind Speed Wind Gust Humidity Rainfall Rate (Hourly) solar Conditions
00:04 64.7 °F /  18.2 °C 46.7 °F /  8.2 °C 29.69 in /  1005.3 hPa NW 10.4 mph /  16.7 km/h 11.5 mph /  18.5 km/h 52 % 0.00 in /  0 mm 0.0 W/m2 CLR
00:09 64.7 °F /  18.2 °C 46.7 °F /  8.2 °C 29.69 in /  1005.3 hPa NNW 25.3 mph /  40.7 km/h 25.3 mph /  40.7 km/h 52 % 0.00 in /  0 mm 0.0 W/m2
00:14 64.7 °F /  18.2 °C 46.6 °F /  8.1 °C 29.69 in /  1005.3 hPa North 9.0 mph /  14.5 km/h 20.0 mph /  32.2 km/h 52 % 0.00 in /  0 mm 0.0 W/m2 CLR
00:19 64.7 °F /  18.2 °C 46.6 °F /  8.1 °C 29.69 in /  1005.3 hPa NNW 8.0 mph /  12.9 km/h 18.0 mph /  29 km/h 52 % 0.00 in /  0 mm 0.0 W/m2 CLR
00:24 64.7 °F /  18.2 °C 46.7 °F /  8.2 °C 29.69 in /  1005.3 hPa North 8.0 mph /  12.9 km/h 24.0 mph /  38.6 km/h 52 % 0.00 in /  0 mm 0.0 W/m2 CLR
00:29 64.8 °F /  18.2 °C 46.7 °F /  8.2 °C 29.69 in /  1005.3 hPa North 9.0 mph /  14.5 km/h 20.0 mph /  32.2 km/h 52 % 0.00 in /  0 mm 0.0 W/m2 CLR
00:34 64.9 °F /  18.3 °C 46.3 °F /  7.9 °C 29.67 in /  1004.6 hPa NNE 6.0 mph /  9.7 km/h 23.0 mph /  37 km/h 51 % 0.00 in /  0 mm 0.0 W/m2 CLR
00:39 64.9 °F /  18.3 °C 46.3 °F /  7.9 °C 29.67 in /  1004.6 hPa NNE 7.0 mph /  11.3 km/h 12.0 mph /  19.3 km/h 51 % 0.00 in /  0 mm 0.0 W/m2 CLR
00:45 64.8 °F /  18.2 °C 46.3 °F /  7.9 °C 29.67 in /  1004.6 hPa North 2.0 mph /  3.2 km/h 16.0 mph /  25.7 km/h 51 % 0.00 in /  0 mm 0.0 W/m2 CLR
00:49 64.8 °F /  18.2 °C 46.2 °F /  7.9 °C 29.67 in /  1004.6 hPa NNE 7.0 mph /  11.3 km/h 13.0 mph /  20.9 km/h 51 % 0.00 in /  0 mm 0.0 W/m2 CLR
00:54 64.8 °F /  18.2 °C 46.2 °F /  7.9 °C 29.66 in /  1004.3 hPa NNE 5.0 mph /  8 km/h 12.0 mph /  19.3 km/h 51 % 0.00 in /  0 mm 0.0 W/m2 CLR
00:59 64.7 °F /  18.2 °C 46.7 °F /  8.2 °C 29.65 in /  1003.9 hPa NNE 5.8 mph /  9.3 km/h 5.8 mph /  9.3 km/h 52 % 0.00 in /  0 mm 0.0 W/m2 CLR
01:04 64.7 °F /  18.2 °C 46.1 °F /  7.8 °C 29.65 in /  1003.9 hPa NNE 5.0 mph /  8 km/h 12.0 mph /  19.3 km/h 51 % 0.00 in /  0 mm 0.0 W/m2 CLR
01:09 64.7 °F /  18.2 °C 46.1 °F /  7.8 °C 29.64 in /  1003.6 hPa NNE 10.4 mph /  16.7 km/h 10.4 mph /  16.7 km/h 51 % 0.00 in /  0 mm 0.0 W/m2 CLR
01:14 64.8 °F /  18.2 °C 46.2 °F /  7.9 °C 29.64 in /  1003.6 hPa NE 6.0 mph /  9.7 km/h 15.0 mph /  24.1 km/h 51 % 0.00 in /  0 mm 0.0 W/m2 CLR
01:19 64.8 °F /  18.2 °C 46.2 °F /  7.9 °C 29.63 in /  1003.3 hPa NE 5.0 mph /  8 km/h 16.0 mph /  25.7 km/h 51 % 0.00 in /  0 mm 0.0 W/m2 CLR
01:24 64.8 °F /  18.2 °C 46.2 °F /  7.9 °C 29.63 in /  1003.3 hPa NNE 9.0 mph /  14.5 km/h 17.0 mph /  27.4 km/h 51 % 0.00 in /  0 mm 0.0 W/m2 CLR
01:29 64.8 °F /  18.2 °C 46.2 °F /  7.9 °C 29.63 in /  1003.3 hPa NNE 5.0 mph /  8 km/h 17.0 mph /  27.4 km/h 51 % 0.00 in /  0 mm 0.0 W/m2 CLR
01:34 64.7 °F /  18.2 °C 46.2 °F /  7.9 °C 29.63 in /  1003.3 hPa NNE 7.0 mph /  11.3 km/h 16.0 mph /  25.7 km/h 51 % 0.00 in /  0 mm 0.0 W/m2 CLR
01:39 64.7 °F /  18.2 °C 45.6 °F /  7.6 °C 29.63 in /  1003.3 hPa NNE 6.0 mph /  9.7 km/h 18.0 mph /  29 km/h 50 % 0.00 in /  0 mm 0.0 W/m2 CLR
01:44 64.7 °F /  18.2 °C 45.6 °F /  7.6 °C 29.61 in /  1002.6 hPa NNE 11.5 mph /  18.5 km/h 11.5 mph /  18.5 km/h 50 % 0.00 in /  0 mm 0.0 W/m2 CLR
01:49 64.6 °F /  18.1 °C 46.1 °F /  7.8 °C 29.61 in /  1002.6 hPa NNE 14.0 mph /  22.5 km/h 14.0 mph /  22.5 km/h 51 % 0.00 in /  0 mm 0.0 W/m2 CLR
01:54 64.5 °F /  18.1 °C 46.0 °F /  7.8 °C 29.60 in /  1002.3 hPa North 12.7 mph /  20.4 km/h 12.7 mph /  20.4 km/h 51 % 0.00 in /  0 mm 0.0 W/m2 CLR
01:59 64.4 °F /  18 °C 45.9 °F /  7.7 °C 29.60 in /  1002.3 hPa NNE 12.7 mph /  20.4 km/h 12.7 mph /  20.4 km/h 51 % 0.00 in /  0 mm 0.0 W/m2 CLR
02:04 64.4 °F /  18 °C 45.3 °F /  7.4 °C 29.59 in /  1001.9 hPa NE 12.7 mph /  20.4 km/h 12.7 mph /  20.4 km/h 50 % 0.00 in /  0 mm 0.0 W/m2 CLR
02:09 64.4 °F /  18 °C 45.3 °F /  7.4 °C 29.58 in /  1001.6 hPa NNE 6.0 mph /  9.7 km/h 18.0 mph /  29 km/h 50 % 0.00 in /  0 mm 0.0 W/m2 CLR
02:14 64.4 °F /  18 °C 45.3 °F /  7.4 °C 29.58 in /  1001.6 hPa NNE 6.0 mph /  9.7 km/h 18.0 mph /  29 km/h 50 % 0.00 in /  0 mm 0.0 W/m2 CLR
02:19 64.4 °F /  18 °C 45.3 °F /  7.4 °C 29.57 in /  1001.2 hPa NNE 6.0 mph /  9.7 km/h 16.0 mph /  25.7 km/h 50 % 0.00 in /  0 mm 0.0 W/m2 CLR
02:24 64.4 °F /  18 °C 45.3 °F /  7.4 °C 29.57 in /  1001.2 hPa NNE 6.0 mph /  9.7 km/h 15.0 mph /  24.1 km/h 50 % 0.00 in /  0 mm 0.0 W/m2 CLR
02:34 64.3 °F /  17.9 °C 45.3 °F /  7.4 °C 29.57 in /  1001.2 hPa NE 3.0 mph /  4.8 km/h 20.0 mph /  32.2 km/h 50 % 0.00 in /  0 mm 0.0 W/m2 CLR
02:39 64.3 °F /  17.9 °C 45.3 °F /  7.4 °C 29.56 in /  1000.9 hPa East 11.5 mph /  18.5 km/h 11.5 mph /  18.5 km/h 50 % 0.00 in /  0 mm 0.0 W/m2 CLR
02:44 64.2 °F /  17.9 °C 45.2 °F /  7.3 °C 29.57 in /  1001.2 hPa North 12.7 mph /  20.4 km/h 12.7 mph /  20.4 km/h 50 % 0.00 in /  0 mm 0.0 W/m2 CLR
02:49 64.2 °F /  17.9 °C 45.2 °F /  7.3 °C 29.57 in /  1001.2 hPa North 11.5 mph /  18.5 km/h 11.5 mph /  18.5 km/h 50 % 0.00 in /  0 mm 0.0 W/m2 CLR
02:54 64.2 °F /  17.9 °C 45.2 °F /  7.3 °C 29.57 in /  1001.2 hPa NE 12.7 mph /  20.4 km/h 12.7 mph /  20.4 km/h 50 % 0.00 in /  0 mm 0.0 W/m2 CLR
02:59 64.2 °F /  17.9 °C 45.7 °F /  7.6 °C 29.57 in /  1001.2 hPa NNE 2.0 mph /  3.2 km/h 15.0 mph /  24.1 km/h 51 % 0.00 in /  0 mm 0.0 W/m2 CLR
Melbourne Forecast
About Melbourne | City of Melbourne official website